sensor_id;sensor_type;location;lat;lon;timestamp;temperature;humidity
54264;DHT22;40178;53.042;6.406;2023-05-29T00:00:35;8.80;85.80
54264;DHT22;40178;53.042;6.406;2023-05-29T00:03:01;8.80;87.20
54264;DHT22;40178;53.042;6.406;2023-05-29T00:05:27;8.80;89.80
54264;DHT22;40178;53.042;6.406;2023-05-29T00:07:53;8.80;95.80
54264;DHT22;40178;53.042;6.406;2023-05-29T00:10:18;8.70;97.00
54264;DHT22;40178;53.042;6.406;2023-05-29T00:12:44;8.70;94.70
54264;DHT22;40178;53.042;6.406;2023-05-29T00:15:10;8.70;95.20
54264;DHT22;40178;53.042;6.406;2023-05-29T00:17:36;8.60;95.50
54264;DHT22;40178;53.042;6.406;2023-05-29T00:20:02;8.60;95.30
54264;DHT22;40178;53.042;6.406;2023-05-29T00:22:35;8.60;92.40
54264;DHT22;40178;53.042;6.406;2023-05-29T00:25:04;8.60;91.40
54264;DHT22;40178;53.042;6.406;2023-05-29T00:27:30;8.50;98.10
54264;DHT22;40178;53.042;6.406;2023-05-29T00:29:56;8.50;94.80
54264;DHT22;40178;53.042;6.406;2023-05-29T00:32:21;8.50;93.70
54264;DHT22;40178;53.042;6.406;2023-05-29T00:34:47;8.50;96.40
54264;DHT22;40178;53.042;6.406;2023-05-29T00:37:13;8.50;98.40
54264;DHT22;40178;53.042;6.406;2023-05-29T00:39:38;8.40;95.70
54264;DHT22;40178;53.042;6.406;2023-05-29T00:42:04;8.50;94.80
54264;DHT22;40178;53.042;6.406;2023-05-29T00:44:30;8.40;96.50
54264;DHT22;40178;53.042;6.406;2023-05-29T00:46:55;8.40;93.80
54264;DHT22;40178;53.042;6.406;2023-05-29T00:49:23;8.30;95.00
54264;DHT22;40178;53.042;6.406;2023-05-29T00:51:52;8.30;94.80
54264;DHT22;40178;53.042;6.406;2023-05-29T00:54:21;8.20;93.90
54264;DHT22;40178;53.042;6.406;2023-05-29T00:56:48;8.20;92.00
54264;DHT22;40178;53.042;6.406;2023-05-29T00:59:15;8.20;94.40
54264;DHT22;40178;53.042;6.406;2023-05-29T01:01:42;8.20;94.30
54264;DHT22;40178;53.042;6.406;2023-05-29T01:04:09;8.20;96.50
54264;DHT22;40178;53.042;6.406;2023-05-29T01:06:38;8.10;96.40
54264;DHT22;40178;53.042;6.406;2023-05-29T01:09:05;8.10;92.60
54264;DHT22;40178;53.042;6.406;2023-05-29T01:12:02;8.10;96.30
54264;DHT22;40178;53.042;6.406;2023-05-29T01:17:18;8.10;95.20
54264;DHT22;40178;53.042;6.406;2023-05-29T01:22:40;8.10;94.70
54264;DHT22;40178;53.042;6.406;2023-05-29T01:28:07;8.10;92.40
54264;DHT22;40178;53.042;6.406;2023-05-29T01:30:35;8.00;93.80
54264;DHT22;40178;53.042;6.406;2023-05-29T01:33:02;8.00;92.50
54264;DHT22;40178;53.042;6.406;2023-05-29T01:35:29;7.90;91.50
54264;DHT22;40178;53.042;6.406;2023-05-29T01:37:55;7.90;91.10
54264;DHT22;40178;53.042;6.406;2023-05-29T01:40:20;7.90;93.60
54264;DHT22;40178;53.042;6.406;2023-05-29T01:42:46;7.90;92.80
54264;DHT22;40178;53.042;6.406;2023-05-29T01:45:12;7.90;92.00
54264;DHT22;40178;53.042;6.406;2023-05-29T01:47:38;7.80;91.20
54264;DHT22;40178;53.042;6.406;2023-05-29T01:50:06;7.90;92.80
54264;DHT22;40178;53.042;6.406;2023-05-29T01:52:32;7.70;92.90
54264;DHT22;40178;53.042;6.406;2023-05-29T01:54:57;7.70;93.70
54264;DHT22;40178;53.042;6.406;2023-05-29T01:57:24;7.60;92.30
54264;DHT22;40178;53.042;6.406;2023-05-29T01:59:51;7.60;93.90
54264;DHT22;40178;53.042;6.406;2023-05-29T02:02:16;7.60;96.10
54264;DHT22;40178;53.042;6.406;2023-05-29T02:04:43;7.50;95.80
54264;DHT22;40178;53.042;6.406;2023-05-29T02:07:08;7.50;95.90
54264;DHT22;40178;53.042;6.406;2023-05-29T02:09:35;7.40;96.00
54264;DHT22;40178;53.042;6.406;2023-05-29T02:12:01;7.40;98.40
54264;DHT22;40178;53.042;6.406;2023-05-29T02:14:27;7.40;99.90
54264;DHT22;40178;53.042;6.406;2023-05-29T02:16:53;7.40;99.90
54264;DHT22;40178;53.042;6.406;2023-05-29T02:19:19;7.30;99.40
54264;DHT22;40178;53.042;6.406;2023-05-29T02:21:46;7.30;99.40
54264;DHT22;40178;53.042;6.406;2023-05-29T02:24:12;7.30;99.10
54264;DHT22;40178;53.042;6.406;2023-05-29T02:26:37;7.20;99.90
54264;DHT22;40178;53.042;6.406;2023-05-29T02:29:03;7.20;99.90
54264;DHT22;40178;53.042;6.406;2023-05-29T02:31:31;7.20;98.90
54264;DHT22;40178;53.042;6.406;2023-05-29T02:33:56;7.10;99.10
54264;DHT22;40178;53.042;6.406;2023-05-29T02:36:22;7.10;99.90
54264;DHT22;40178;53.042;6.406;2023-05-29T02:38:48;7.10;99.30
54264;DHT22;40178;53.042;6.406;2023-05-29T02:41:13;7.00;99.90
54264;DHT22;40178;53.042;6.406;2023-05-29T02:43:39;7.00;99.90
54264;DHT22;40178;53.042;6.406;2023-05-29T02:46:05;6.90;99.90
54264;DHT22;40178;53.042;6.406;2023-05-29T02:48:30;6.90;99.90
54264;DHT22;40178;53.042;6.406;2023-05-29T02:50:56;6.90;99.90
54264;DHT22;40178;53.042;6.406;2023-05-29T02:53:22;6.90;99.90
54264;DHT22;40178;53.042;6.406;2023-05-29T02:55:48;6.90;99.90
54264;DHT22;40178;53.042;6.406;2023-05-29T02:58:14;6.90;99.90
54264;DHT22;40178;53.042;6.406;2023-05-29T03:00:42;6.80;99.90
54264;DHT22;40178;53.042;6.406;2023-05-29T03:03:07;6.80;99.90
54264;DHT22;40178;53.042;6.406;2023-05-29T03:05:33;6.80;99.90
54264;DHT22;40178;53.042;6.406;2023-05-29T03:07:58;6.80;99.90
54264;DHT22;40178;53.042;6.406;2023-05-29T03:10:24;6.80;99.90
54264;DHT22;40178;53.042;6.406;2023-05-29T03:12:50;6.80;99.90
54264;DHT22;40178;53.042;6.406;2023-05-29T03:15:16;6.70;99.90
54264;DHT22;40178;53.042;6.406;2023-05-29T03:17:45;6.80;99.90
54264;DHT22;40178;53.042;6.406;2023-05-29T03:20:11;6.70;99.90
54264;DHT22;40178;53.042;6.406;2023-05-29T03:22:37;6.70;99.90
54264;DHT22;40178;53.042;6.406;2023-05-29T03:25:03;6.60;99.90
54264;DHT22;40178;53.042;6.406;2023-05-29T03:27:29;6.60;99.90
54264;DHT22;40178;53.042;6.406;2023-05-29T03:29:56;6.60;99.90
54264;DHT22;40178;53.042;6.406;2023-05-29T03:32:21;6.60;99.90
54264;DHT22;40178;53.042;6.406;2023-05-29T03:34:47;6.50;99.90
54264;DHT22;40178;53.042;6.406;2023-05-29T03:37:13;6.60;99.90
54264;DHT22;40178;53.042;6.406;2023-05-29T03:39:39;6.50;99.90
54264;DHT22;40178;53.042;6.406;2023-05-29T03:42:05;6.70;99.90
54264;DHT22;40178;53.042;6.406;2023-05-29T03:44:30;6.70;99.90
54264;DHT22;40178;53.042;6.406;2023-05-29T03:46:56;6.80;99.90
54264;DHT22;40178;53.042;6.406;2023-05-29T03:49:22;6.90;99.90
54264;DHT22;40178;53.042;6.406;2023-05-29T03:51:47;6.90;99.90
54264;DHT22;40178;53.042;6.406;2023-05-29T03:54:13;6.90;99.90
54264;DHT22;40178;53.042;6.406;2023-05-29T03:56:39;7.00;99.90
54264;DHT22;40178;53.042;6.406;2023-05-29T03:59:04;7.10;99.90
54264;DHT22;40178;53.042;6.406;2023-05-29T04:01:30;7.10;99.90
54264;DHT22;40178;53.042;6.406;2023-05-29T04:03:56;7.10;99.90
54264;DHT22;40178;53.042;6.406;2023-05-29T04:06:21;7.10;99.90
54264;DHT22;40178;53.042;6.406;2023-05-29T04:08:48;7.20;99.90
54264;DHT22;40178;53.042;6.406;2023-05-29T04:11:14;7.30;99.90
54264;DHT22;40178;53.042;6.406;2023-05-29T04:13:40;7.40;99.90
54264;DHT22;40178;53.042;6.406;2023-05-29T04:16:07;7.50;99.90
54264;DHT22;40178;53.042;6.406;2023-05-29T04:18:32;7.50;99.90
54264;DHT22;40178;53.042;6.406;2023-05-29T04:20:59;8.40;99.90
54264;DHT22;40178;53.042;6.406;2023-05-29T04:23:25;7.60;99.90
54264;DHT22;40178;53.042;6.406;2023-05-29T04:25:50;7.70;99.90
54264;DHT22;40178;53.042;6.406;2023-05-29T04:28:16;7.70;99.20
54264;DHT22;40178;53.042;6.406;2023-05-29T04:30:42;7.80;98.00
54264;DHT22;40178;53.042;6.406;2023-05-29T04:33:08;7.90;95.60
54264;DHT22;40178;53.042;6.406;2023-05-29T04:35:35;7.90;96.20
54264;DHT22;40178;53.042;6.406;2023-05-29T04:38:01;8.00;95.40
54264;DHT22;40178;53.042;6.406;2023-05-29T04:40:26;8.00;93.60
54264;DHT22;40178;53.042;6.406;2023-05-29T04:42:52;8.10;93.60
54264;DHT22;40178;53.042;6.406;2023-05-29T04:45:20;8.20;92.80
54264;DHT22;40178;53.042;6.406;2023-05-29T04:47:46;8.20;92.00
54264;DHT22;40178;53.042;6.406;2023-05-29T04:50:12;8.80;91.30
54264;DHT22;40178;53.042;6.406;2023-05-29T04:52:38;8.20;90.60
54264;DHT22;40178;53.042;6.406;2023-05-29T04:55:05;8.20;88.50
54264;DHT22;40178;53.042;6.406;2023-05-29T04:57:30;8.20;91.50
54264;DHT22;40178;53.042;6.406;2023-05-29T04:59:56;8.60;86.90
54264;DHT22;40178;53.042;6.406;2023-05-29T05:02:22;8.30;83.40
54264;DHT22;40178;53.042;6.406;2023-05-29T05:04:47;8.40;80.10
54264;DHT22;40178;53.042;6.406;2023-05-29T05:07:13;8.60;80.30
54264;DHT22;40178;53.042;6.406;2023-05-29T05:09:41;8.50;80.20
54264;DHT22;40178;53.042;6.406;2023-05-29T05:12:07;8.60;75.80
54264;DHT22;40178;53.042;6.406;2023-05-29T05:14:34;8.80;72.40
54264;DHT22;40178;53.042;6.406;2023-05-29T05:17:00;9.00;70.00
54264;DHT22;40178;53.042;6.406;2023-05-29T05:19:25;9.10;61.20
54264;DHT22;40178;53.042;6.406;2023-05-29T05:21:51;9.60;59.40
54264;DHT22;40178;53.042;6.406;2023-05-29T05:24:16;9.40;47.30
54264;DHT22;40178;53.042;6.406;2023-05-29T05:26:42;9.60;35.40
54264;DHT22;40178;53.042;6.406;2023-05-29T05:29:07;9.70;43.50
54264;DHT22;40178;53.042;6.406;2023-05-29T05:31:33;9.90;36.60
54264;DHT22;40178;53.042;6.406;2023-05-29T05:33:59;10.00;3.90
54264;DHT22;40178;53.042;6.406;2023-05-29T05:36:24;10.20;1.00
54264;DHT22;40178;53.042;6.406;2023-05-29T05:38:50;10.20;1.00
54264;DHT22;40178;53.042;6.406;2023-05-29T05:41:16;10.30;1.00
54264;DHT22;40178;53.042;6.406;2023-05-29T05:43:41;10.50;1.00
54264;DHT22;40178;53.042;6.406;2023-05-29T05:46:07;10.50;1.00
54264;DHT22;40178;53.042;6.406;2023-05-29T05:48:32;11.10;1.00
54264;DHT22;40178;53.042;6.406;2023-05-29T05:50:58;10.70;99.90
54264;DHT22;40178;53.042;6.406;2023-05-29T05:53:23;10.80;99.90
54264;DHT22;40178;53.042;6.406;2023-05-29T05:55:49;10.80;99.90
54264;DHT22;40178;53.042;6.406;2023-05-29T05:58:15;10.90;99.90
54264;DHT22;40178;53.042;6.406;2023-05-29T06:00:40;11.00;99.90
54264;DHT22;40178;53.042;6.406;2023-05-29T06:03:07;11.10;99.90
54264;DHT22;40178;53.042;6.406;2023-05-29T06:05:33;11.10;74.10
54264;DHT22;40178;53.042;6.406;2023-05-29T06:08:01;11.10;1.00
54264;DHT22;40178;53.042;6.406;2023-05-29T06:10:27;11.10;1.00
54264;DHT22;40178;53.042;6.406;2023-05-29T06:12:53;11.10;27.10
54264;DHT22;40178;53.042;6.406;2023-05-29T06:15:19;11.10;99.90
54264;DHT22;40178;53.042;6.406;2023-05-29T06:17:45;11.80;60.60
54264;DHT22;40178;53.042;6.406;2023-05-29T06:20:10;11.30;99.90
54264;DHT22;40178;53.042;6.406;2023-05-29T06:22:39;11.40;99.90
54264;DHT22;40178;53.042;6.406;2023-05-29T06:25:05;11.80;1.00
54264;DHT22;40178;53.042;6.406;2023-05-29T06:27:31;11.40;1.00
54264;DHT22;40178;53.042;6.406;2023-05-29T06:29:57;11.40;1.00
54264;DHT22;40178;53.042;6.406;2023-05-29T06:32:23;11.40;99.90
54264;DHT22;40178;53.042;6.406;2023-05-29T06:34:48;11.40;1.00
54264;DHT22;40178;53.042;6.406;2023-05-29T06:37:14;11.40;1.00
54264;DHT22;40178;53.042;6.406;2023-05-29T06:39:40;11.40;68.90
54264;DHT22;40178;53.042;6.406;2023-05-29T06:42:07;11.40;67.20
54264;DHT22;40178;53.042;6.406;2023-05-29T06:44:33;11.50;1.00
54264;DHT22;40178;53.042;6.406;2023-05-29T06:46:59;11.50;1.00
54264;DHT22;40178;53.042;6.406;2023-05-29T06:49:24;11.40;99.90
54264;DHT22;40178;53.042;6.406;2023-05-29T06:51:50;11.50;99.90
54264;DHT22;40178;53.042;6.406;2023-05-29T06:54:16;11.50;99.90
54264;DHT22;40178;53.042;6.406;2023-05-29T06:56:42;11.50;11.00
54264;DHT22;40178;53.042;6.406;2023-05-29T06:59:07;11.70;99.90
54264;DHT22;40178;53.042;6.406;2023-05-29T07:01:33;11.60;99.90
54264;DHT22;40178;53.042;6.406;2023-05-29T07:03:59;12.00;99.90
54264;DHT22;40178;53.042;6.406;2023-05-29T07:06:24;11.80;1.00
54264;DHT22;40178;53.042;6.406;2023-05-29T07:08:50;11.80;99.90
54264;DHT22;40178;53.042;6.406;2023-05-29T07:11:16;11.80;99.90
54264;DHT22;40178;53.042;6.406;2023-05-29T07:13:41;11.90;99.90
54264;DHT22;40178;53.042;6.406;2023-05-29T07:16:07;11.90;99.90
54264;DHT22;40178;53.042;6.406;2023-05-29T07:18:32;12.10;99.90
54264;DHT22;40178;53.042;6.406;2023-05-29T07:21:00;12.20;1.00
54264;DHT22;40178;53.042;6.406;2023-05-29T07:23:25;12.30;1.00
54264;DHT22;40178;53.042;6.406;2023-05-29T07:25:51;12.30;1.00
54264;DHT22;40178;53.042;6.406;2023-05-29T07:28:17;12.20;99.90
54264;DHT22;40178;53.042;6.406;2023-05-29T07:30:42;12.20;1.00
54264;DHT22;40178;53.042;6.406;2023-05-29T07:33:08;12.10;99.90
54264;DHT22;40178;53.042;6.406;2023-05-29T07:35:33;12.10;93.20
54264;DHT22;40178;53.042;6.406;2023-05-29T07:37:59;12.20;99.90
54264;DHT22;40178;53.042;6.406;2023-05-29T07:40:25;12.10;99.90
54264;DHT22;40178;53.042;6.406;2023-05-29T07:42:51;12.10;99.90
54264;DHT22;40178;53.042;6.406;2023-05-29T07:45:17;12.10;99.90
54264;DHT22;40178;53.042;6.406;2023-05-29T07:47:43;12.10;99.90
54264;DHT22;40178;53.042;6.406;2023-05-29T07:50:09;12.20;99.90
54264;DHT22;40178;53.042;6.406;2023-05-29T07:52:36;12.30;99.90
54264;DHT22;40178;53.042;6.406;2023-05-29T07:55:02;13.00;99.90
54264;DHT22;40178;53.042;6.406;2023-05-29T07:57:28;12.70;9.70
54264;DHT22;40178;53.042;6.406;2023-05-29T07:59:54;13.50;49.90
54264;DHT22;40178;53.042;6.406;2023-05-29T08:02:21;13.60;99.90
54264;DHT22;40178;53.042;6.406;2023-05-29T08:04:47;13.10;99.90
54264;DHT22;40178;53.042;6.406;2023-05-29T08:07:12;13.40;1.00
54264;DHT22;40178;53.042;6.406;2023-05-29T08:09:38;13.10;1.00
54264;DHT22;40178;53.042;6.406;2023-05-29T08:12:07;13.60;81.20
54264;DHT22;40178;53.042;6.406;2023-05-29T08:14:33;13.90;94.40
54264;DHT22;40178;53.042;6.406;2023-05-29T08:16:58;13.50;99.90
54264;DHT22;40178;53.042;6.406;2023-05-29T08:19:24;14.00;34.50
54264;DHT22;40178;53.042;6.406;2023-05-29T08:21:50;14.10;15.70
54264;DHT22;40178;53.042;6.406;2023-05-29T08:24:16;13.90;1.00
54264;DHT22;40178;53.042;6.406;2023-05-29T08:26:41;13.70;1.00
54264;DHT22;40178;53.042;6.406;2023-05-29T08:29:09;13.50;1.00
54264;DHT22;40178;53.042;6.406;2023-05-29T08:31:34;13.90;1.00
54264;DHT22;40178;53.042;6.406;2023-05-29T08:34:01;14.00;1.00
54264;DHT22;40178;53.042;6.406;2023-05-29T08:36:27;14.20;1.00
54264;DHT22;40178;53.042;6.406;2023-05-29T08:38:53;14.10;99.90
54264;DHT22;40178;53.042;6.406;2023-05-29T08:41:34;13.90;99.90
54264;DHT22;40178;53.042;6.406;2023-05-29T08:44:03;13.70;99.90
54264;DHT22;40178;53.042;6.406;2023-05-29T08:46:32;14.40;1.00
54264;DHT22;40178;53.042;6.406;2023-05-29T08:48:59;13.90;99.90
54264;DHT22;40178;53.042;6.406;2023-05-29T08:51:30;13.90;99.90
54264;DHT22;40178;53.042;6.406;2023-05-29T08:53:57;14.30;99.90
54264;DHT22;40178;53.042;6.406;2023-05-29T08:56:23;13.80;99.90
54264;DHT22;40178;53.042;6.406;2023-05-29T08:58:49;14.30;99.90
54264;DHT22;40178;53.042;6.406;2023-05-29T09:01:16;13.80;99.90
54264;DHT22;40178;53.042;6.406;2023-05-29T09:03:42;13.70;99.90
54264;DHT22;40178;53.042;6.406;2023-05-29T09:06:08;13.80;99.90
54264;DHT22;40178;53.042;6.406;2023-05-29T09:08:35;13.90;99.90
54264;DHT22;40178;53.042;6.406;2023-05-29T09:11:00;13.90;99.90
54264;DHT22;40178;53.042;6.406;2023-05-29T09:13:26;14.00;99.90
54264;DHT22;40178;53.042;6.406;2023-05-29T09:16:00;14.00;99.90
54264;DHT22;40178;53.042;6.406;2023-05-29T09:18:31;14.00;99.90
54264;DHT22;40178;53.042;6.406;2023-05-29T09:20:58;14.10;99.90
54264;DHT22;40178;53.042;6.406;2023-05-29T09:23:25;14.00;99.90
54264;DHT22;40178;53.042;6.406;2023-05-29T09:25:52;14.00;99.90
54264;DHT22;40178;53.042;6.406;2023-05-29T09:28:21;14.00;93.80
54264;DHT22;40178;53.042;6.406;2023-05-29T09:30:47;14.10;58.40
54264;DHT22;40178;53.042;6.406;2023-05-29T09:33:15;13.90;97.60
54264;DHT22;40178;53.042;6.406;2023-05-29T09:35:48;14.10;99.90
54264;DHT22;40178;53.042;6.406;2023-05-29T09:38:16;14.20;29.70
54264;DHT22;40178;53.042;6.406;2023-05-29T09:40:42;14.30;73.90
54264;DHT22;40178;53.042;6.406;2023-05-29T09:43:13;14.50;78.10
54264;DHT22;40178;53.042;6.406;2023-05-29T09:45:40;14.70;36.10
54264;DHT22;40178;53.042;6.406;2023-05-29T09:48:07;14.70;1.00
54264;DHT22;40178;53.042;6.406;2023-05-29T09:50:34;14.80;18.80
54264;DHT22;40178;53.042;6.406;2023-05-29T09:53:00;14.80;1.00
54264;DHT22;40178;53.042;6.406;2023-05-29T09:57:59;14.90;1.00
54264;DHT22;40178;53.042;6.406;2023-05-29T10:00:24;14.80;1.00
54264;DHT22;40178;53.042;6.406;2023-05-29T10:02:51;14.70;1.00
54264;DHT22;40178;53.042;6.406;2023-05-29T10:05:16;14.90;1.00
54264;DHT22;40178;53.042;6.406;2023-05-29T10:07:44;14.90;1.00
54264;DHT22;40178;53.042;6.406;2023-05-29T10:10:14;15.00;1.00
54264;DHT22;40178;53.042;6.406;2023-05-29T10:12:48;14.80;1.00
54264;DHT22;40178;53.042;6.406;2023-05-29T10:15:15;14.90;99.90
54264;DHT22;40178;53.042;6.406;2023-05-29T10:17:57;14.90;1.00
54264;DHT22;40178;53.042;6.406;2023-05-29T10:20:23;15.20;99.90
54264;DHT22;40178;53.042;6.406;2023-05-29T10:22:54;15.40;1.00
54264;DHT22;40178;53.042;6.406;2023-05-29T10:25:21;15.60;99.90
54264;DHT22;40178;53.042;6.406;2023-05-29T10:27:48;15.50;99.90
54264;DHT22;40178;53.042;6.406;2023-05-29T10:36:20;15.10;99.90
54264;DHT22;40178;53.042;6.406;2023-05-29T10:38:48;15.40;99.90
54264;DHT22;40178;53.042;6.406;2023-05-29T10:43:55;15.40;99.90
54264;DHT22;40178;53.042;6.406;2023-05-29T10:46:21;15.30;99.90
54264;DHT22;40178;53.042;6.406;2023-05-29T10:48:50;15.40;99.90
54264;DHT22;40178;53.042;6.406;2023-05-29T10:51:27;15.50;99.90
54264;DHT22;40178;53.042;6.406;2023-05-29T10:53:53;15.50;99.90
54264;DHT22;40178;53.042;6.406;2023-05-29T10:56:23;15.70;99.90
54264;DHT22;40178;53.042;6.406;2023-05-29T10:58:54;15.80;99.90
54264;DHT22;40178;53.042;6.406;2023-05-29T11:01:23;15.90;99.90
54264;DHT22;40178;53.042;6.406;2023-05-29T11:03:50;16.00;99.90
54264;DHT22;40178;53.042;6.406;2023-05-29T11:06:19;16.10;99.90
54264;DHT22;40178;53.042;6.406;2023-05-29T11:09:03;16.10;99.90
54264;DHT22;40178;53.042;6.406;2023-05-29T11:11:33;16.10;99.90
54264;DHT22;40178;53.042;6.406;2023-05-29T11:14:03;16.00;99.90
54264;DHT22;40178;53.042;6.406;2023-05-29T11:18:56;16.00;99.90
54264;DHT22;40178;53.042;6.406;2023-05-29T11:24:24;16.00;99.90
54264;DHT22;40178;53.042;6.406;2023-05-29T11:26:56;16.10;99.90
54264;DHT22;40178;53.042;6.406;2023-05-29T11:29:27;16.20;99.90
54264;DHT22;40178;53.042;6.406;2023-05-29T11:32:04;16.20;99.90
54264;DHT22;40178;53.042;6.406;2023-05-29T11:34:31;16.10;99.90
54264;DHT22;40178;53.042;6.406;2023-05-29T11:37:02;15.90;99.90
54264;DHT22;40178;53.042;6.406;2023-05-29T11:39:28;16.00;99.90
54264;DHT22;40178;53.042;6.406;2023-05-29T11:41:54;15.90;99.90
54264;DHT22;40178;53.042;6.406;2023-05-29T11:44:21;15.80;99.90
54264;DHT22;40178;53.042;6.406;2023-05-29T11:47:02;15.70;99.90
54264;DHT22;40178;53.042;6.406;2023-05-29T11:49:32;15.70;99.90
54264;DHT22;40178;53.042;6.406;2023-05-29T11:52:12;15.70;99.90
54264;DHT22;40178;53.042;6.406;2023-05-29T11:54:39;15.90;99.90
54264;DHT22;40178;53.042;6.406;2023-05-29T11:57:07;15.90;99.90
54264;DHT22;40178;53.042;6.406;2023-05-29T11:59:33;16.10;99.90
54264;DHT22;40178;53.042;6.406;2023-05-29T12:02:02;16.00;99.90
54264;DHT22;40178;53.042;6.406;2023-05-29T12:04:28;15.80;99.90
54264;DHT22;40178;53.042;6.406;2023-05-29T12:06:54;15.90;99.90
54264;DHT22;40178;53.042;6.406;2023-05-29T12:09:27;15.90;99.90
54264;DHT22;40178;53.042;6.406;2023-05-29T12:11:54;15.90;99.90
54264;DHT22;40178;53.042;6.406;2023-05-29T12:14:20;15.80;80.30
54264;DHT22;40178;53.042;6.406;2023-05-29T12:16:46;15.70;51.70
54264;DHT22;40178;53.042;6.406;2023-05-29T12:19:12;15.80;52.40
54264;DHT22;40178;53.042;6.406;2023-05-29T12:21:41;15.90;94.00
54264;DHT22;40178;53.042;6.406;2023-05-29T12:24:08;16.00;82.60
54264;DHT22;40178;53.042;6.406;2023-05-29T12:26:35;16.10;75.80
54264;DHT22;40178;53.042;6.406;2023-05-29T12:29:03;16.30;83.60
54264;DHT22;40178;53.042;6.406;2023-05-29T12:31:31;16.40;80.40
54264;DHT22;40178;53.042;6.406;2023-05-29T12:34:07;16.30;86.50
54264;DHT22;40178;53.042;6.406;2023-05-29T12:36:33;16.20;80.40
54264;DHT22;40178;53.042;6.406;2023-05-29T12:38:59;16.20;72.30
54264;DHT22;40178;53.042;6.406;2023-05-29T12:41:32;16.20;68.80
54264;DHT22;40178;53.042;6.406;2023-05-29T12:44:01;16.20;80.90
54264;DHT22;40178;53.042;6.406;2023-05-29T12:46:27;16.20;66.70
54264;DHT22;40178;53.042;6.406;2023-05-29T12:48:54;16.20;54.90
54264;DHT22;40178;53.042;6.406;2023-05-29T12:51:24;16.20;61.60
54264;DHT22;40178;53.042;6.406;2023-05-29T12:53:50;16.40;62.20
54264;DHT22;40178;53.042;6.406;2023-05-29T12:56:16;16.50;65.50
54264;DHT22;40178;53.042;6.406;2023-05-29T12:58:42;16.40;11.80
54264;DHT22;40178;53.042;6.406;2023-05-29T13:01:12;16.50;31.40
54264;DHT22;40178;53.042;6.406;2023-05-29T13:03:39;16.40;3.40
54264;DHT22;40178;53.042;6.406;2023-05-29T13:06:06;16.40;1.00
54264;DHT22;40178;53.042;6.406;2023-05-29T13:08:32;16.70;21.70
54264;DHT22;40178;53.042;6.406;2023-05-29T13:10:58;16.80;1.00
54264;DHT22;40178;53.042;6.406;2023-05-29T13:13:23;16.60;1.00
54264;DHT22;40178;53.042;6.406;2023-05-29T13:15:49;16.90;1.00
54264;DHT22;40178;53.042;6.406;2023-05-29T13:18:15;16.80;1.00
54264;DHT22;40178;53.042;6.406;2023-05-29T13:20:40;16.60;1.00
54264;DHT22;40178;53.042;6.406;2023-05-29T13:23:06;16.70;1.00
54264;DHT22;40178;53.042;6.406;2023-05-29T13:25:34;16.80;1.00
54264;DHT22;40178;53.042;6.406;2023-05-29T13:28:00;17.10;1.00
54264;DHT22;40178;53.042;6.406;2023-05-29T13:30:25;17.10;1.00
54264;DHT22;40178;53.042;6.406;2023-05-29T13:32:53;16.90;1.00
54264;DHT22;40178;53.042;6.406;2023-05-29T13:35:19;16.70;1.00
54264;DHT22;40178;53.042;6.406;2023-05-29T13:37:45;16.80;1.00
54264;DHT22;40178;53.042;6.406;2023-05-29T13:40:11;17.00;1.00
54264;DHT22;40178;53.042;6.406;2023-05-29T13:42:38;16.90;1.00
54264;DHT22;40178;53.042;6.406;2023-05-29T13:45:05;16.90;1.00
54264;DHT22;40178;53.042;6.406;2023-05-29T13:47:32;16.80;1.00
54264;DHT22;40178;53.042;6.406;2023-05-29T13:49:58;16.90;1.00
54264;DHT22;40178;53.042;6.406;2023-05-29T13:52:28;16.90;1.00
54264;DHT22;40178;53.042;6.406;2023-05-29T13:54:53;17.00;1.00
54264;DHT22;40178;53.042;6.406;2023-05-29T13:57:19;17.00;1.00
54264;DHT22;40178;53.042;6.406;2023-05-29T13:59:45;17.10;1.00
54264;DHT22;40178;53.042;6.406;2023-05-29T14:02:10;17.00;1.00
54264;DHT22;40178;53.042;6.406;2023-05-29T14:04:37;17.10;1.00
54264;DHT22;40178;53.042;6.406;2023-05-29T14:07:04;16.90;1.00
54264;DHT22;40178;53.042;6.406;2023-05-29T14:09:29;17.00;1.00
54264;DHT22;40178;53.042;6.406;2023-05-29T14:11:57;17.00;1.00
54264;DHT22;40178;53.042;6.406;2023-05-29T14:14:23;17.00;1.00
54264;DHT22;40178;53.042;6.406;2023-05-29T14:16:49;17.10;1.00
54264;DHT22;40178;53.042;6.406;2023-05-29T14:19:15;17.10;1.00
54264;DHT22;40178;53.042;6.406;2023-05-29T14:21:41;17.20;1.00
54264;DHT22;40178;53.042;6.406;2023-05-29T14:24:06;17.10;1.00
54264;DHT22;40178;53.042;6.406;2023-05-29T14:26:33;17.10;1.00
54264;DHT22;40178;53.042;6.406;2023-05-29T14:28:59;17.10;1.00
54264;DHT22;40178;53.042;6.406;2023-05-29T14:31:24;17.10;1.00
54264;DHT22;40178;53.042;6.406;2023-05-29T14:33:50;17.20;1.00
54264;DHT22;40178;53.042;6.406;2023-05-29T14:36:15;17.40;1.00
54264;DHT22;40178;53.042;6.406;2023-05-29T14:38:41;17.30;1.00
54264;DHT22;40178;53.042;6.406;2023-05-29T14:41:09;17.50;1.00
54264;DHT22;40178;53.042;6.406;2023-05-29T14:43:34;17.40;1.00
54264;DHT22;40178;53.042;6.406;2023-05-29T14:46:00;17.60;1.00
54264;DHT22;40178;53.042;6.406;2023-05-29T14:48:26;17.80;1.00
54264;DHT22;40178;53.042;6.406;2023-05-29T14:50:51;17.80;1.00
54264;DHT22;40178;53.042;6.406;2023-05-29T14:53:17;17.90;1.00
54264;DHT22;40178;53.042;6.406;2023-05-29T14:55:43;17.90;1.00
54264;DHT22;40178;53.042;6.406;2023-05-29T14:58:08;18.00;1.00
54264;DHT22;40178;53.042;6.406;2023-05-29T15:00:34;18.10;1.00
54264;DHT22;40178;53.042;6.406;2023-05-29T15:03:00;18.20;1.00
54264;DHT22;40178;53.042;6.406;2023-05-29T15:05:26;18.30;1.00
54264;DHT22;40178;53.042;6.406;2023-05-29T15:07:52;18.20;1.00
54264;DHT22;40178;53.042;6.406;2023-05-29T15:10:20;18.40;1.00
54264;DHT22;40178;53.042;6.406;2023-05-29T15:12:46;18.40;1.00
54264;DHT22;40178;53.042;6.406;2023-05-29T15:15:12;18.70;1.00
54264;DHT22;40178;53.042;6.406;2023-05-29T15:17:37;18.40;1.00
54264;DHT22;40178;53.042;6.406;2023-05-29T15:20:05;18.80;1.00
54264;DHT22;40178;53.042;6.406;2023-05-29T15:22:31;18.70;1.00
54264;DHT22;40178;53.042;6.406;2023-05-29T15:24:56;18.80;99.90
54264;DHT22;40178;53.042;6.406;2023-05-29T15:27:22;18.90;99.90
54264;DHT22;40178;53.042;6.406;2023-05-29T15:29:48;18.80;99.90
54264;DHT22;40178;53.042;6.406;2023-05-29T15:32:13;18.80;99.90
54264;DHT22;40178;53.042;6.406;2023-05-29T15:34:39;19.40;1.00
54264;DHT22;40178;53.042;6.406;2023-05-29T15:37:06;19.50;99.90
54264;DHT22;40178;53.042;6.406;2023-05-29T15:39:31;19.70;99.90
54264;DHT22;40178;53.042;6.406;2023-05-29T15:41:57;19.50;99.90
54264;DHT22;40178;53.042;6.406;2023-05-29T15:44:22;19.40;99.90
54264;DHT22;40178;53.042;6.406;2023-05-29T15:46:48;19.50;99.90
54264;DHT22;40178;53.042;6.406;2023-05-29T15:49:14;19.40;99.90
54264;DHT22;40178;53.042;6.406;2023-05-29T15:51:39;19.60;99.90
54264;DHT22;40178;53.042;6.406;2023-05-29T15:54:06;19.70;99.90
54264;DHT22;40178;53.042;6.406;2023-05-29T15:56:32;19.90;99.90
54264;DHT22;40178;53.042;6.406;2023-05-29T15:58:58;20.00;99.90
54264;DHT22;40178;53.042;6.406;2023-05-29T16:01:23;20.30;99.90